Verona, Kentucky
Current Conditions -  °F | °C
As of 10:13 PM on Wednesday 22 Oct 2014 (Local Time) from KCVG Reporting Station
Broken Clouds Broken Clouds  
Wind Chill: 50°   Ceiling: 2400
Heat Index: 50°   Visibility: 10mi
Dew Point: 39°   Wind: 5mph
Humidity: 66%   Direction: 30°NNE
Pressure: 30.27"   Gusts: NA
Location:  38.82°N, 84.66°W
Report Text: KCVG 230213Z 03004KT 10SM BKN024 10/04 A3027 RMK AO2
Loading
Personal Weather Stations






























Interactive Weather Map
Tropical Storm Tracking
New forecast layout! Learn more

10-Day Weather Forecast

Advertisements
Track Severe Weather on mobile